Caldazinha, Brazil
Current Conditions -  °F | °C
As of 4:00 PM on Friday 28 Nov 2014 (Local Time) from SBGO Reporting Station
Light Rain Light Rain  
Wind Chill: 21°   Ceiling: 10000
Heat Index: 21°   Visibility: 3mi
Dew Point: 18°   Wind: 17mph
Humidity: 83%   Direction: 350°N
Pressure: NA   Gusts: NA
Location:  16.71°S, 49°W
Report Text: SBGO 281800Z 35015KT 5000 -RA SCT025 FEW030TCU BKN100 21/18 Q1015
Loading
Personal Weather Stations






























Interactive Weather Map New forecast layout! Learn more

10-Day Weather Forecast

Advertisements
Track Severe Weather on mobile